Time,TemperatureF,DewpointF,PressureIn,WindDirection,WindDirectionDegrees,WindSpeedMPH,WindSpeedGustMPH,Humidity,HourlyPrecipIn,Conditions,Clouds,dailyrainin,SoftwareType,DateUTC
2013-01-29 00:14:00,50.7,47.0,30.22,SW,216,2.0,6.0,87,0.00,,,0.00,weatherlink.com 1.10,2013-01-29 05:14:00,
2013-01-29 00:29:00,50.1,47.0,30.22,West,274,1.0,3.0,88,0.00,,,0.00,weatherlink.com 1.10,2013-01-29 05:29:00,
2013-01-29 00:44:00,49.3,47.0,30.21,WSW,248,0.0,5.0,90,0.00,,,0.00,weatherlink.com 1.10,2013-01-29 05:44:00,
2013-01-29 00:59:00,49.1,46.0,30.21,WSW,239,0.0,4.0,90,0.00,,,0.00,weatherlink.com 1.10,2013-01-29 05:59:00,
2013-01-29 01:14:00,48.8,47.0,30.21,West,260,0.0,3.0,92,0.00,,,0.00,weatherlink.com 1.10,2013-01-29 06:14:00,
2013-01-29 01:29:00,49.7,48.0,30.21,West,260,2.0,6.0,93,0.00,,,0.00,weatherlink.com 1.10,2013-01-29 06:29:00,
2013-01-29 01:44:00,50.3,48.0,30.20,WSW,253,4.0,7.0,92,0.00,,,0.00,weatherlink.com 1.10,2013-01-29 06:44:00,
2013-01-29 01:59:00,50.4,48.0,30.20,WSW,246,0.0,8.0,92,0.00,,,0.00,weatherlink.com 1.10,2013-01-29 06:59:00,
2013-01-29 02:29:00,49.6,47.0,30.20,SSW,212,0.0,5.0,92,0.00,,,0.00,weatherlink.com 1.10,2013-01-29 07:29:00,
2013-01-29 02:44:00,48.9,47.0,30.20,West,269,1.0,3.0,92,0.00,,,0.00,weatherlink.com 1.10,2013-01-29 07:44:00,
2013-01-29 02:59:00,48.7,47.0,30.20,West,278,0.0,4.0,93,0.00,,,0.00,weatherlink.com 1.10,2013-01-29 07:59:00,
2013-01-29 03:14:00,48.7,47.0,30.20,NNE,26,0.0,3.0,93,0.00,,,0.00,weatherlink.com 1.10,2013-01-29 08:14:00,
2013-01-29 03:29:00,48.6,47.0,30.19,SW,236,0.0,5.0,94,0.00,,,0.00,weatherlink.com 1.10,2013-01-29 08:29:00,
2013-01-29 03:44:00,48.4,47.0,30.19,WSW,250,0.0,4.0,94,0.00,,,0.00,weatherlink.com 1.10,2013-01-29 08:44:00,
2013-01-29 04:00:00,48.4,47.0,30.18,NW,309,0.0,5.0,94,0.00,,,0.00,weatherlink.com 1.10,2013-01-29 09:00:00,
2013-01-29 04:15:00,48.5,47.0,30.18,West,269,0.0,3.0,94,0.00,,,0.00,weatherlink.com 1.10,2013-01-29 09:15:00,
2013-01-29 04:30:00,48.7,47.0,30.18,WNW,283,2.0,5.0,94,0.00,,,0.00,weatherlink.com 1.10,2013-01-29 09:30:00,
2013-01-29 04:45:00,49.1,48.0,30.17,West,271,4.0,7.0,94,0.00,,,0.00,weatherlink.com 1.10,2013-01-29 09:45:00,
2013-01-29 05:00:00,49.1,47.0,30.17,West,273,0.0,8.0,93,0.00,,,0.00,weatherlink.com 1.10,2013-01-29 10:00:00,
2013-01-29 05:15:00,48.9,47.0,30.17,West,270,0.0,5.0,93,0.00,,,0.00,weatherlink.com 1.10,2013-01-29 10:15:00,
2013-01-29 05:30:00,48.6,47.0,30.18,West,269,0.0,4.0,94,0.00,,,0.00,weatherlink.com 1.10,2013-01-29 10:30:00,
2013-01-29 05:45:00,48.8,47.0,30.18,WNW,286,1.0,6.0,94,0.00,,,0.00,weatherlink.com 1.10,2013-01-29 10:45:00,
2013-01-29 06:00:00,48.9,47.0,30.18,West,277,4.0,8.0,94,0.00,,,0.00,weatherlink.com 1.10,2013-01-29 11:00:00,
2013-01-29 06:15:00,48.9,47.0,30.18,West,278,0.0,5.0,94,0.00,,,0.00,weatherlink.com 1.10,2013-01-29 11:15:00,
2013-01-29 06:30:00,48.7,47.0,30.18,West,277,2.0,4.0,94,0.00,,,0.00,weatherlink.com 1.10,2013-01-29 11:30:00,
2013-01-29 06:45:00,48.6,47.0,30.18,West,271,1.0,5.0,95,0.00,,,0.00,weatherlink.com 1.10,2013-01-29 11:45:00,
2013-01-29 07:00:00,48.8,47.0,30.19,WNW,300,3.0,4.0,94,0.00,,,0.00,weatherlink.com 1.10,2013-01-29 12:00:00,
2013-01-29 07:15:00,49.0,47.0,30.19,West,271,3.0,4.0,94,0.00,,,0.00,weatherlink.com 1.10,2013-01-29 12:15:00,
2013-01-29 07:30:00,49.1,48.0,30.19,WSW,256,1.0,7.0,94,0.00,,,0.00,weatherlink.com 1.10,2013-01-29 12:30:00,
2013-01-29 07:45:00,49.3,48.0,30.20,West,274,3.0,5.0,94,0.00,,,0.00,weatherlink.com 1.10,2013-01-29 12:45:00,
2013-01-29 08:04:00,49.7,48.0,30.20,WSW,249,0.0,4.0,93,0.00,,,0.00,weatherlink.com 1.10,2013-01-29 13:04:00,
2013-01-29 08:15:00,50.0,48.0,30.20,West,274,2.0,6.0,93,0.00,,,0.00,weatherlink.com 1.10,2013-01-29 13:15:00,
2013-01-29 08:30:00,51.2,49.0,30.20,West,281,4.0,7.0,92,0.00,,,0.00,weatherlink.com 1.10,2013-01-29 13:30:00,
2013-01-29 08:45:00,52.4,50.0,30.20,West,271,8.0,10.0,90,0.00,,,0.00,weatherlink.com 1.10,2013-01-29 13:45:00,
2013-01-29 09:00:00,53.8,50.0,30.20,SW,231,8.0,10.0,88,0.00,,,0.00,weatherlink.com 1.10,2013-01-29 14:00:00,
2013-01-29 09:15:00,55.2,51.0,30.20,WSW,243,2.0,10.0,87,0.00,,,0.00,weatherlink.com 1.10,2013-01-29 14:15:00,
2013-01-29 09:30:00,56.3,52.0,30.19,SW,232,4.0,9.0,85,0.00,,,0.00,weatherlink.com 1.10,2013-01-29 14:30:00,
2013-01-29 09:45:00,57.6,53.0,30.19,West,280,6.0,9.0,83,0.00,,,0.00,weatherlink.com 1.10,2013-01-29 14:45:00,
2013-01-29 10:00:00,58.8,53.0,30.19,WNW,289,4.0,7.0,81,0.00,,,0.00,weatherlink.com 1.10,2013-01-29 15:00:00,
2013-01-29 10:15:00,60.2,54.0,30.20,WSW,257,3.0,8.0,79,0.00,,,0.00,weatherlink.com 1.10,2013-01-29 15:15:00,
2013-01-29 10:30:00,61.3,54.0,30.20,West,259,3.0,8.0,78,0.00,,,0.00,weatherlink.com 1.10,2013-01-29 15:30:00,
2013-01-29 10:45:00,62.4,55.0,30.20,WNW,302,6.0,8.0,77,0.00,,,0.00,weatherlink.com 1.10,2013-01-29 15:45:00,
2013-01-29 11:00:00,63.4,55.0,30.19,WSW,252,6.0,11.0,75,0.00,,,0.00,weatherlink.com 1.10,2013-01-29 16:00:00,
2013-01-29 11:16:00,64.5,56.0,30.19,SW,232,2.0,8.0,73,0.00,,,0.00,weatherlink.com 1.10,2013-01-29 16:16:00,
2013-01-29 11:31:00,65.6,56.0,30.18,WSW,254,4.0,8.0,72,0.00,,,0.00,weatherlink.com 1.10,2013-01-29 16:31:00,
2013-01-29 11:46:00,66.8,57.0,30.17,WSW,247,4.0,16.0,71,0.00,,,0.00,weatherlink.com 1.10,2013-01-29 16:46:00,
2013-01-29 12:01:00,67.8,57.0,30.16,West,264,3.0,8.0,68,0.00,,,0.00,weatherlink.com 1.10,2013-01-29 17:01:00,
2013-01-29 12:16:00,68.8,57.0,30.15,WNW,285,4.0,6.0,67,0.00,,,0.00,weatherlink.com 1.10,2013-01-29 17:16:00,
2013-01-29 12:31:00,68.8,58.0,30.14,NW,315,6.0,9.0,68,0.00,,,0.00,weatherlink.com 1.10,2013-01-29 17:31:00,
2013-01-29 12:46:00,69.0,58.0,30.13,West,278,5.0,9.0,67,0.00,,,0.00,weatherlink.com 1.10,2013-01-29 17:46:00,
2013-01-29 13:01:00,68.6,57.0,30.12,WNW,297,2.0,12.0,67,0.00,,,0.00,weatherlink.com 1.10,2013-01-29 18:01:00,
2013-01-29 13:16:00,69.3,57.0,30.11,WSW,246,4.0,9.0,66,0.00,,,0.00,weatherlink.com 1.10,2013-01-29 18:16:00,
2013-01-29 13:31:00,70.1,58.0,30.11,NNW,333,6.0,9.0,65,0.00,,,0.00,weatherlink.com 1.10,2013-01-29 18:31:00,
2013-01-29 13:46:00,70.5,58.0,30.10,WSW,257,6.0,9.0,65,0.00,,,0.00,weatherlink.com 1.10,2013-01-29 18:46:00,
2013-01-29 14:01:00,70.5,58.0,30.09,WNW,284,3.0,8.0,65,0.00,,,0.00,weatherlink.com 1.10,2013-01-29 19:01:00,
2013-01-29 14:16:00,71.0,58.0,30.10,NW,305,2.0,12.0,64,0.00,,,0.00,weatherlink.com 1.10,2013-01-29 19:16:00,
2013-01-29 14:32:00,71.7,58.0,30.10,WSW,253,1.0,7.0,63,0.00,,,0.00,weatherlink.com 1.10,2013-01-29 19:32:00,
2013-01-29 14:46:00,71.5,58.0,30.09,WSW,246,3.0,9.0,63,0.00,,,0.00,weatherlink.com 1.10,2013-01-29 19:46:00,
2013-01-29 15:01:00,72.2,59.0,30.09,SW,229,0.0,7.0,63,0.00,,,0.00,weatherlink.com 1.10,2013-01-29 20:01:00,
2013-01-29 15:16:00,72.8,58.0,30.09,West,273,3.0,7.0,61,0.00,,,0.00,weatherlink.com 1.10,2013-01-29 20:16:00,
2013-01-29 15:32:00,73.3,57.0,30.08,West,266,3.0,9.0,58,0.00,,,0.00,weatherlink.com 1.10,2013-01-29 20:32:00,
2013-01-29 15:46:00,73.5,58.0,30.08,WSW,255,3.0,7.0,58,0.00,,,0.00,weatherlink.com 1.10,2013-01-29 20:46:00,
2013-01-29 16:01:00,73.8,58.0,30.09,WSW,250,0.0,3.0,59,0.00,,,0.00,weatherlink.com 1.10,2013-01-29 21:01:00,
2013-01-29 16:17:00,73.6,58.0,30.08,West,276,0.0,3.0,58,0.00,,,0.00,weatherlink.com 1.10,2013-01-29 21:17:00,
2013-01-29 16:31:00,73.0,58.0,30.08,SW,218,4.0,7.0,59,0.00,,,0.00,weatherlink.com 1.10,2013-01-29 21:31:00,
2013-01-29 16:46:00,72.4,57.0,30.08,SSE,167,0.0,3.0,59,0.00,,,0.00,weatherlink.com 1.10,2013-01-29 21:46:00,
2013-01-29 17:01:00,70.8,57.0,30.08,SE,128,0.0,3.0,63,0.00,,,0.00,weatherlink.com 1.10,2013-01-29 22:01:00,
2013-01-29 17:16:00,68.9,57.0,30.08,West,278,0.0,1.0,66,0.00,,,0.00,weatherlink.com 1.10,2013-01-29 22:16:00,
2013-01-29 17:31:00,66.9,57.0,30.08,SE,128,0.0,1.0,71,0.00,,,0.00,weatherlink.com 1.10,2013-01-29 22:31:00,
2013-01-29 17:46:00,65.2,57.0,30.08,SE,130,0.0,0.0,74,0.00,,,0.00,weatherlink.com 1.10,2013-01-29 22:46:00,
2013-01-29 18:01:00,63.1,57.0,30.08,SE,130,0.0,0.0,79,0.00,,,0.00,weatherlink.com 1.10,2013-01-29 23:01:00,
2013-01-29 18:17:00,61.4,56.0,30.08,SE,130,0.0,0.0,81,0.00,,,0.00,weatherlink.com 1.10,2013-01-29 23:17:00,
2013-01-29 18:32:00,59.5,55.0,30.08,WSW,254,0.0,0.0,85,0.00,,,0.00,weatherlink.com 1.10,2013-01-29 23:32:00,
2013-01-29 18:47:00,58.8,55.0,30.08,WSW,243,0.0,0.0,87,0.00,,,0.00,weatherlink.com 1.10,2013-01-29 23:47:00,
2013-01-29 19:02:00,58.1,55.0,30.08,WSW,243,0.0,0.0,88,0.00,,,0.00,weatherlink.com 1.10,2013-01-30 00:02:00,
2013-01-29 19:17:00,57.7,55.0,30.08,WSW,243,0.0,0.0,89,0.00,,,0.00,weatherlink.com 1.10,2013-01-30 00:17:00,
2013-01-29 19:32:00,57.3,55.0,30.08,WSW,243,0.0,0.0,90,0.00,,,0.00,weatherlink.com 1.10,2013-01-30 00:32:00,
2013-01-29 19:47:00,57.4,55.0,30.08,East,99,0.0,1.0,91,0.00,,,0.00,weatherlink.com 1.10,2013-01-30 00:47:00,
2013-01-29 20:02:00,57.5,54.0,30.08,SW,233,0.0,1.0,89,0.00,,,0.00,weatherlink.com 1.10,2013-01-30 01:02:00,
2013-01-29 20:17:00,57.6,55.0,30.08,SW,233,0.0,0.0,90,0.00,,,0.00,weatherlink.com 1.10,2013-01-30 01:17:00,
2013-01-29 20:32:00,58.2,55.0,30.08,SSW,194,0.0,1.0,90,0.00,,,0.00,weatherlink.com 1.10,2013-01-30 01:32:00,
2013-01-29 20:47:00,58.7,56.0,30.08,South,170,0.0,3.0,90,0.00,,,0.00,weatherlink.com 1.10,2013-01-30 01:47:00,
2013-01-29 21:02:00,59.5,56.0,30.07,ENE,58,0.0,3.0,89,0.00,,,0.00,weatherlink.com 1.10,2013-01-30 02:02:00,
2013-01-29 21:17:00,60.1,56.0,30.08,ESE,120,0.0,2.0,87,0.00,,,0.00,weatherlink.com 1.10,2013-01-30 02:17:00,
2013-01-29 21:32:00,60.1,57.0,30.08,SSW,207,0.0,2.0,88,0.00,,,0.00,weatherlink.com 1.10,2013-01-30 02:32:00,
2013-01-29 21:47:00,60.0,57.0,30.08,SW,228,0.0,3.0,88,0.00,,,0.00,weatherlink.com 1.10,2013-01-30 02:47:00,
2013-01-29 22:02:00,59.8,56.0,30.08,SSW,198,0.0,5.0,88,0.00,,,0.00,weatherlink.com 1.10,2013-01-30 03:02:00,
2013-01-29 22:17:00,60.4,57.0,30.07,WNW,289,0.0,3.0,88,0.00,,,0.00,weatherlink.com 1.10,2013-01-30 03:17:00,
2013-01-29 22:32:00,60.4,57.0,30.08,WNW,296,0.0,2.0,87,0.00,,,0.00,weatherlink.com 1.10,2013-01-30 03:32:00,
2013-01-29 22:47:00,59.7,57.0,30.08,South,169,0.0,1.0,89,0.00,,,0.00,weatherlink.com 1.10,2013-01-30 03:47:00,
2013-01-29 23:02:00,59.3,56.0,30.08,East,89,0.0,3.0,90,0.00,,,0.00,weatherlink.com 1.10,2013-01-30 04:02:00,
2013-01-29 23:17:00,59.0,57.0,30.09,ENE,73,1.0,2.0,92,0.00,,,0.00,weatherlink.com 1.10,2013-01-30 04:17:00,
2013-01-29 23:32:00,59.8,57.0,30.08,WSW,256,2.0,4.0,91,0.00,,,0.00,weatherlink.com 1.10,2013-01-30 04:32:00,
2013-01-29 23:47:00,59.8,58.0,30.08,WSW,238,0.0,4.0,92,0.00,,,0.00,weatherlink.com 1.10,2013-01-30 04:47:00,